Stations météo

réclame
Mon MeteoGroup
Stabroek, Belgique (6438): Température de l'air & dewpoint: 17.09.2017 23:00:00 - 23.09.2017 23:00:00 (CEST)Stabroek, Belgique (6438): Vitesse du vent & gusts: 17.09.2017 23:00:00 - 23.09.2017 23:00:00 (CEST)Stabroek, Belgique (6438): Direction du vent: 17.09.2017 23:00:00 - 23.09.2017 23:00:00 (CEST)Stabroek, Belgique (6438): reduced air pressure: 17.09.2017 23:00:00 - 23.09.2017 23:00:00 (CEST)Stabroek, Belgique (6438): Ensoleillement: 17.09.2017 23:00:00 - 23.09.2017 23:00:00 (CEST)Stabroek, Belgique (6438): Quantités de précipitations: 17.09.2017 23:00:00 - 23.09.2017 23:00:00 (CEST)
Date & Time tt [°C] td [°C] ff [km/h] ff [knt] fx [km/h] fx [knt] dd ppp [hPa] sd [min] rr [mm]
23.09.2017 23:00:00 9,1 8,4 4 2 - - ENE 1023,9 - -
23.09.2017 22:00:00 10,5 8,9 4 2 6 3 NE 1023,9 0 0,0
23.09.2017 21:00:00 12,0 9,6 5 3 7 4 ENE 1023,6 0 0,0
23.09.2017 20:00:00 14,1 9,3 4 2 7 4 ENE 1023,5 29 0,0
23.09.2017 19:00:00 16,4 8,8 5 3 13 7 ENE 1023,5 60 0,0
23.09.2017 18:00:00 17,6 9,8 8 4 14 8 ENE 1023,4 60 0,0
23.09.2017 17:00:00 18,0 9,1 6 3 12 6 NE 1023,5 60 0,0
23.09.2017 16:00:00 18,2 8,3 6 3 13 7 ESE 1024,3 60 0,0
23.09.2017 15:00:00 17,7 10,4 4 2 12 6 E 1024,8 59 0,0
23.09.2017 14:00:00 17,1 10,5 7 4 11 6 E 1025,1 60 0,0
23.09.2017 13:00:00 16,3 9,9 6 4 16 9 SE 1025,4 60 0,0
23.09.2017 12:00:00 15,7 11,0 6 3 12 6 E 1025,4 60 0,0
23.09.2017 11:00:00 14,0 11,4 8 4 12 7 ESE 1025,8 60 0,0
23.09.2017 10:00:00 11,0 10,4 0 0 5 3 N 1025,4 60 0,0
23.09.2017 09:00:00 6,9 6,8 4 2 5 3 E 1025,3 17 0,0
23.09.2017 08:00:00 4,8 4,8 4 2 4 2 ENE 1025,2 0 0,0
23.09.2017 07:00:00 4,7 4,7 0 0 4 2 N 1025,0 0 0,0
23.09.2017 06:00:00 4,7 4,7 0 0 4 2 N 1024,9 0 0,0
23.09.2017 05:00:00 5,1 5,1 0 0 4 2 N 1025,0 0 0,0
23.09.2017 04:00:00 5,2 5,2 4 2 3 2 ENE 1024,9 0 0,0
23.09.2017 03:00:00 5,6 5,6 0 0 4 2 N 1024,9 0 0,0
23.09.2017 02:00:00 6,4 6,4 4 2 4 2 E 1024,9 0 0,0
23.09.2017 01:00:00 6,7 6,6 0 0 4 2 N 1024,4 0 0,0
23.09.2017 00:00:00 8,3 8,3 0 0 3 2 N 1024,4 0 0,0
22.09.2017 23:00:00 9,9 9,8 4 2 6 3 N 1024,2 0 0,0
22.09.2017 22:00:00 12,1 10,7 4 2 9 5 NNW 1024,0 0 0,0
22.09.2017 21:00:00 13,3 10,9 6 3 15 8 NNW 1023,8 0 0,0
22.09.2017 20:00:00 14,4 11,1 7 4 16 9 NNW 1023,1 33 0,0
22.09.2017 19:00:00 16,1 12,1 9 5 21 12 NW 1022,7 58 0,0
22.09.2017 18:00:00 17,0 11,7 13 7 22 12 NW 1022,2 60 0,0
22.09.2017 17:00:00 17,1 13,2 12 6 22 12 NW 1021,9 13 0,0
22.09.2017 16:00:00 17,4 14,5 9 5 26 14 NNW 1021,7 18 0,0
22.09.2017 15:00:00 18,5 13,5 8 4 15 8 WSW 1021,3 22 0,0
22.09.2017 14:00:00 17,4 13,3 7 4 16 8 SW 1021,4 22 0,0
22.09.2017 13:00:00 16,8 13,1 7 4 13 7 SW 1021,5 0 0,0
22.09.2017 12:00:00 16,0 13,7 6 3 10 5 W 1021,3 0 0,0
22.09.2017 11:00:00 15,1 13,8 4 2 5 3 SE 1021,1 0 0,0
22.09.2017 10:00:00 13,2 12,6 0 0 4 2 N 1020,9 21 0,0
22.09.2017 09:00:00 10,7 10,6 0 0 3 2 N 1020,5 0 0,0
22.09.2017 08:00:00 9,5 9,3 4 2 4 2 ENE 1020,3 0 0,0
22.09.2017 07:00:00 7,6 7,6 4 2 5 3 ENE 1019,8 0 0,0
22.09.2017 06:00:00 7,8 7,8 4 2 5 3 E 1019,7 0 0,0
22.09.2017 05:00:00 8,7 8,7 4 2 5 3 E 1019,7 0 0,0
22.09.2017 04:00:00 - - - - - - - - - -
22.09.2017 03:00:00 - - - - - - - - 0 -
22.09.2017 02:00:00 9,0 8,6 4 2 4 2 ESE 1019,9 0 0,0
22.09.2017 01:00:00 10,1 9,6 4 2 6 3 E 1019,8 0 0,0
22.09.2017 00:00:00 11,1 10,3 4 2 6 3 E 1019,8 0 0,0
21.09.2017 23:00:00 12,1 10,6 5 3 7 4 E 1019,8 0 0,0
21.09.2017 22:00:00 12,9 10,6 0 0 10 5 N 1019,8 0 0,0
21.09.2017 21:00:00 14,9 11,3 7 4 9 5 ESE 1019,7 0 0,0
21.09.2017 20:00:00 15,9 11,2 4 2 11 6 SSE 1019,2 7 0,0
21.09.2017 19:00:00 18,0 10,7 7 4 16 9 ESE 1018,8 60 0,0
21.09.2017 18:00:00 18,6 10,3 10 6 17 9 S 1018,8 58 0,0
21.09.2017 17:00:00 18,5 10,2 9 5 22 12 SSE 1018,8 60 0,0
21.09.2017 16:00:00 19,4 9,8 13 7 24 13 S 1018,9 59 0,0
21.09.2017 15:00:00 19,1 10,4 14 8 26 14 SSE 1019,5 60 0,0
21.09.2017 14:00:00 18,3 9,8 18 10 26 14 SSE 1020,0 60 0,0
21.09.2017 13:00:00 17,5 9,9 16 9 24 13 S 1020,3 60 0,0
21.09.2017 12:00:00 16,3 10,3 14 8 22 12 S 1020,5 - -
21.09.2017 11:00:00 14,5 9,8 12 7 17 9 SSE 1020,7 60 0,0
21.09.2017 10:00:00 13,1 9,6 11 6 16 8 SSE 1020,6 60 0,0
21.09.2017 09:00:00 10,7 9,2 5 3 13 7 ESE 1020,4 51 0,0
21.09.2017 08:00:00 9,2 8,4 7 4 11 6 ESE 1020,3 0 0,0
21.09.2017 07:00:00 9,5 8,6 6 4 10 5 ESE 1020,3 0 0,0
21.09.2017 06:00:00 10,4 9,0 8 4 11 6 SE 1020,3 0 0,0
21.09.2017 05:00:00 10,8 9,0 7 4 13 7 SE 1020,3 0 0,0
21.09.2017 04:00:00 11,2 9,3 10 5 15 8 SSE 1020,6 0 0,0
21.09.2017 03:00:00 12,5 9,7 8 5 15 8 SSE 1020,7 0 0,0
21.09.2017 02:00:00 13,4 10,3 7 4 19 10 S 1020,9 0 0,0
21.09.2017 01:00:00 15,0 10,4 16 9 31 17 SSW 1020,9 0 0,0
21.09.2017 00:00:00 14,5 11,5 8 4 16 9 S 1020,9 0 0,0
20.09.2017 23:00:00 15,0 11,2 11 6 19 10 SSW 1020,9 0 0,0
20.09.2017 22:00:00 15,4 11,0 14 8 21 12 SSW 1020,8 0 0,0
20.09.2017 21:00:00 15,5 10,9 12 6 20 11 SSW 1020,9 0 0,0
20.09.2017 20:00:00 15,0 10,6 11 6 23 13 S 1020,6 4 0,0
20.09.2017 19:00:00 16,4 10,4 17 9 32 17 SW 1020,5 4 0,0
20.09.2017 18:00:00 17,2 10,8 18 10 27 14 SSW 1020,6 12 0,0
20.09.2017 17:00:00 17,5 10,0 14 8 28 15 SW 1020,7 13 0,0
20.09.2017 16:00:00 18,0 9,5 13 7 36 19 SW 1021,0 50 0,0
20.09.2017 15:00:00 18,4 10,3 12 6 26 14 WSW 1021,1 57 0,0
20.09.2017 14:00:00 16,8 10,3 16 9 25 14 WSW 1021,6 19 0,0
20.09.2017 13:00:00 16,1 10,8 15 8 24 13 WSW 1021,8 54 0,0
20.09.2017 12:00:00 15,5 11,1 15 8 22 12 SW 1021,8 60 0,0
20.09.2017 11:00:00 14,0 10,5 13 7 22 12 SW 1021,7 52 0,0
20.09.2017 10:00:00 12,7 9,9 14 8 22 12 SW 1021,6 46 0,0
20.09.2017 09:00:00 11,1 9,7 9 5 14 8 SSW 1021,6 48 0,0
20.09.2017 08:00:00 9,7 9,2 11 6 13 7 S 1021,6 0 0,0
20.09.2017 07:00:00 9,8 9,4 0 0 6 4 N 1021,4 0 0,0
20.09.2017 06:00:00 11,2 9,5 7 4 19 10 WSW 1021,4 0 0,0
20.09.2017 05:00:00 11,6 10,0 14 7 23 12 W 1021,5 0 0,0
20.09.2017 04:00:00 12,5 10,5 17 9 28 15 WSW 1021,6 0 0,0
20.09.2017 03:00:00 12,5 11,0 10 6 19 10 SW 1021,8 0 0,0
20.09.2017 02:00:00 12,5 11,9 4 2 5 3 SW 1022,0 0 0,0
20.09.2017 01:00:00 13,0 12,1 0 0 8 5 N 1022,1 0 0,0
20.09.2017 00:00:00 13,3 12,0 6 3 8 4 W 1022,2 0 0,0
19.09.2017 23:00:00 13,5 11,7 4 2 10 6 N 1022,2 0 0,0
19.09.2017 22:00:00 13,2 11,3 4 2 9 5 NW 1022,0 0 0,0
19.09.2017 21:00:00 13,7 11,1 6 3 13 7 NW 1021,6 0 0,0
19.09.2017 20:00:00 14,7 11,1 7 4 16 9 NW 1021,2 3 0,0
19.09.2017 19:00:00 15,5 11,1 12 6 23 12 NW 1020,9 17 0,0
19.09.2017 18:00:00 16,1 10,3 13 7 22 12 NW 1020,5 45 0,0
19.09.2017 17:00:00 17,2 10,5 14 7 23 12 NW 1020,1 39 0,0
19.09.2017 16:00:00 16,1 10,0 11 6 17 9 NNW 1020,3 34 0,0
19.09.2017 15:00:00 16,7 10,1 5 3 14 8 NW 1020,1 31 0,0
19.09.2017 14:00:00 16,8 10,0 7 4 18 10 NNW 1019,9 47 0,0
19.09.2017 13:00:00 16,1 9,8 7 4 19 11 N 1020,0 60 0,0
19.09.2017 12:00:00 15,1 10,8 10 6 19 11 NNW 1019,8 60 0,0
19.09.2017 11:00:00 13,6 12,0 4 2 17 9 NNE 1019,1 60 0,0
19.09.2017 10:00:00 12,6 11,5 8 4 11 6 N 1018,6 60 0,0
19.09.2017 09:00:00 12,2 11,0 7 4 16 9 N 1017,6 43 0,0
19.09.2017 08:00:00 11,0 10,0 7 4 16 9 WNW 1017,3 0 0,0
19.09.2017 07:00:00 11,8 10,5 13 7 24 13 W 1016,8 0 0,0
19.09.2017 06:00:00 11,5 10,5 16 9 26 14 WSW 1016,5 0 0,0
19.09.2017 05:00:00 11,6 10,7 15 8 20 11 WSW 1016,4 0 0,2
19.09.2017 04:00:00 11,5 10,8 13 7 22 12 WSW 1016,3 0 0,0
19.09.2017 03:00:00 11,7 10,7 13 7 16 9 WSW 1016,2 0 0,1
19.09.2017 02:00:00 11,6 10,4 11 6 21 11 WSW 1016,1 0 0,1
19.09.2017 01:00:00 11,7 10,7 16 9 26 14 WSW 1016,2 0 0,0
19.09.2017 00:00:00 11,8 10,8 14 8 23 13 WSW 1016,2 0 0,3
18.09.2017 23:00:00 12,0 10,4 16 9 27 15 WSW 1016,1 0 0,0
18.09.2017 22:00:00 12,7 11,3 16 9 24 13 WSW 1015,9 0 0,1
18.09.2017 21:00:00 13,3 11,2 16 9 22 12 WSW 1015,9 0 0,1
18.09.2017 20:00:00 13,6 11,5 14 8 26 14 WSW 1015,4 0 0,0
18.09.2017 19:00:00 14,6 10,5 16 9 29 15 W 1015,0 0 0,0
18.09.2017 18:00:00 14,9 10,5 17 9 30 16 W 1014,7 24 0,0
18.09.2017 17:00:00 15,3 11,0 18 10 31 17 W 1014,7 32 0,0
18.09.2017 16:00:00 15,4 11,0 19 11 30 16 W 1014,4 40 0,3
18.09.2017 15:00:00 13,3 10,8 19 11 38 20 W 1014,4 2 0,5
18.09.2017 14:00:00 14,7 11,1 14 8 25 14 W 1014,3 0 0,0
18.09.2017 13:00:00 14,3 11,5 16 9 40 22 SW 1014,4 24 0,8
18.09.2017 12:00:00 15,1 10,8 20 11 31 17 WSW 1014,4 43 0,0
18.09.2017 11:00:00 14,3 11,5 11 6 22 12 SW 1014,4 45 0,0
18.09.2017 10:00:00 12,5 11,4 9 5 14 8 SSW 1014,3 21 0,0
18.09.2017 09:00:00 11,5 10,4 12 6 19 10 SSW 1014,1 5 0,0
18.09.2017 08:00:00 10,9 10,4 11 6 18 10 SSW 1013,8 0 0,6
18.09.2017 07:00:00 11,2 10,7 11 6 14 8 SW 1013,7 0 0,4
18.09.2017 06:00:00 11,0 10,2 10 5 16 9 WSW 1013,7 0 0,0
18.09.2017 05:00:00 10,5 9,9 9 5 14 8 SW 1013,7 0 0,0
18.09.2017 04:00:00 10,4 9,4 7 4 15 8 SSW 1013,7 0 0,0
18.09.2017 03:00:00 10,7 9,4 10 5 16 9 SW 1013,9 0 0,0
18.09.2017 02:00:00 11,6 10,1 11 6 16 9 SW 1013,9 0 0,0
18.09.2017 01:00:00 12,0 10,0 10 5 17 9 SW 1014,0 0 0,0
18.09.2017 00:00:00 12,5 10,4 9 5 12 7 SW 1014,3 0 0,0
17.09.2017 23:00:00 11,6 10,5 4 2 4 2 SSE 1014,0 0 0,0

tt = Température de l'air
td = dewpoint
ff = Vitesse du vent
fx = gusts
dd = Direction du vent
ppp = reduced air pressure
sd = Ensoleillement
rr = Quantités de précipitations

stations d'obs. à proximité